»·PEaware :: N12559 KBUR-KMHV

N12559 :: KBUR-KMHV

FLIGHT INFORMATION

Flight Status: Arrived
Operator: Privately registered:
United States
More flights under this callsign
Pilot: Joshua S. (14624)
Aircraft: CESSNA 172 SKYHAWK
(C172)
More flights by this aircraft type
Origin: KBUR Bob Hope-Burbank
United States
Destination: KMHV Mojave
United States
More flights between these airports :: More routes between these airports
Route: +VNY3 PMD ROSIE
File this flight plan on PilotEdge
Remarks:
Altitude:
(Current/Filed)
9,000ft
Speed:
(Current/Filed)
110kts
Departed: 09-Feb-19 01:20 PM
Arrived: 09-Feb-19 02:29 PM
Distance/Time
Traveled:
52nm/1:09
Distance/Time
To Go:
Arrived

Flight Plot

Page will automatically refresh every two minutes.

Flight plan parsing failed; only flown route is shown


Map Options




Map Legend


Flown Route
Filed Route
Departure Airport
Arrival Airport
Navaid (VOR, NDB)
Fix

Horizontal Profiles

Position Reports

Time Latitude Longitude Heading Altitude Ground
Speed
09-Feb-19 12:50 34.197901 -118.369059 90 780ft 0kts
09-Feb-19 12:51 34.197901 -118.369059 90 780ft 0kts
09-Feb-19 12:52 34.197901 -118.369059 90 780ft 0kts
09-Feb-19 12:53 34.197901 -118.369059 90 780ft 0kts
09-Feb-19 12:54 34.197901 -118.369059 90 780ft 0kts
09-Feb-19 12:55 34.197901 -118.369059 90 780ft 0kts
09-Feb-19 12:56 34.197901 -118.369059 90 780ft 0kts
09-Feb-19 12:57 34.197901 -118.369059 90 780ft 0kts
09-Feb-19 12:58 34.197901 -118.369059 90 780ft 0kts
09-Feb-19 12:59 34.197901 -118.369059 90 780ft 0kts
09-Feb-19 13:00 34.197901 -118.369059 90 780ft 0kts
09-Feb-19 13:01 34.197901 -118.369059 90 780ft 0kts
09-Feb-19 13:02 34.197901 -118.369059 90 780ft 0kts
09-Feb-19 13:03 34.197901 -118.369059 90 780ft 0kts
09-Feb-19 13:04 34.197901 -118.369059 90 780ft 0kts
09-Feb-19 13:05 34.197901 -118.369059 90 780ft 0kts
09-Feb-19 13:06 34.197901 -118.369059 90 780ft 0kts
09-Feb-19 13:07 34.197901 -118.369059 90 780ft 0kts
09-Feb-19 13:08 34.197901 -118.369059 90 780ft 0kts
09-Feb-19 13:09 34.196776 -118.352383 180 780ft 0kts
09-Feb-19 13:10 34.196776 -118.352383 180 780ft 0kts
09-Feb-19 13:11 34.197075 -118.352230 332 780ft 0kts
09-Feb-19 13:12 34.196957 -118.352797 299 780ft 0kts
09-Feb-19 13:13 34.197258 -118.353794 296 780ft 6kts
09-Feb-19 13:14 34.197372 -118.355064 273 780ft 0kts
09-Feb-19 13:15 34.199259 -118.355473 352 780ft 26kts
09-Feb-19 13:16 34.207822 -118.357838 345 780ft 27kts
09-Feb-19 13:17 34.211626 -118.359036 327 780ft 0kts
09-Feb-19 13:18 34.211882 -118.359330 306 780ft 14kts
09-Feb-19 13:19 34.197036 -118.357028 173 1072ft 80kts
09-Feb-19 13:20 34.175392 -118.355098 201 1762ft 77kts
09-Feb-19 13:21 34.177065 -118.374569 325 2446ft 72kts
09-Feb-19 13:22 34.192930 -118.387390 324 3129ft 65kts
09-Feb-19 13:23 34.208391 -118.392639 352 3744ft 55kts
09-Feb-19 13:24 34.225614 -118.395503 352 4244ft 66kts
09-Feb-19 13:25 34.243033 -118.398362 352 4824ft 60kts
09-Feb-19 13:26 34.247546 -118.399115 352 4969ft 59kts
09-Feb-19 13:27 34.247546 -118.399115 352 4969ft 59kts
09-Feb-19 13:28 34.256173 -118.402873 338 5250ft 58kts
09-Feb-19 13:29 34.271247 -118.409898 339 5724ft 57kts
09-Feb-19 13:30 34.286149 -118.416745 338 6168ft 57kts
09-Feb-19 13:31 34.301806 -118.423986 339 6597ft 60kts
09-Feb-19 13:32 34.317554 -118.431165 339 6991ft 65kts
09-Feb-19 13:33 34.333694 -118.438460 339 7425ft 64kts
09-Feb-19 13:34 34.351883 -118.446629 339 7781ft 77kts
09-Feb-19 13:36 34.373343 -118.456263 339 8100ft 86kts
09-Feb-19 13:37 34.392721 -118.445353 52 8402ft 89kts
09-Feb-19 13:38 34.407865 -118.421146 52 8704ft 90kts
09-Feb-19 13:39 34.423784 -118.395798 52 8836ft 103kts
09-Feb-19 13:40 34.441802 -118.367128 52 8833ft 108kts
09-Feb-19 13:41 34.460076 -118.338032 52 8832ft 109kts
09-Feb-19 13:42 34.478454 -118.308746 52 8832ft 109kts
09-Feb-19 13:43 34.496810 -118.279471 52 8832ft 109kts
09-Feb-19 13:44 34.514548 -118.251158 52 8941ft 104kts
09-Feb-19 13:45 34.532582 -118.222348 52 8943ft 108kts
09-Feb-19 13:46 34.550806 -118.193213 52 8942ft 109kts
09-Feb-19 13:47 34.569113 -118.163921 52 8942ft 109kts
09-Feb-19 13:48 34.587441 -118.134570 52 8942ft 109kts
09-Feb-19 13:49 34.605711 -118.105289 52 8942ft 109kts
09-Feb-19 13:50 34.647955 -118.074833 332 8942ft 107kts
09-Feb-19 13:51 34.700145 -118.108163 332 8942ft 106kts
09-Feb-19 13:52 34.751863 -118.141502 332 8942ft 106kts
09-Feb-19 13:53 34.803509 -118.174849 332 8942ft 106kts
09-Feb-19 13:54 34.854565 -118.205587 6 8940ft 106kts
09-Feb-19 13:55 34.883404 -118.198112 12 8942ft 106kts
09-Feb-19 13:55 34.907439 -118.191654 12 8942ft 106kts
09-Feb-19 13:57 34.938045 -118.174641 37 8942ft 106kts
09-Feb-19 13:58 34.961436 -118.152583 37 8942ft 106kts
09-Feb-19 13:59 34.985471 -118.129921 37 8943ft 111kts
09-Feb-19 13:59 35.005898 -118.110659 37 8942ft 112kts
09-Feb-19 14:00 35.030940 -118.087046 37 8943ft 115kts
09-Feb-19 14:02 35.060531 -118.059134 37 8942ft 115kts
09-Feb-19 14:03 35.085550 -118.035026 35 8935ft 119kts
09-Feb-19 14:03 35.107147 -118.016080 35 9024ft 111kts
09-Feb-19 14:04 35.133049 -117.992726 36 8931ft 118kts
09-Feb-19 14:05 35.159203 -117.969593 37 8911ft 117kts
09-Feb-19 14:06 35.184441 -117.945810 40 9005ft 108kts
09-Feb-19 14:07 35.209033 -117.921843 39 8951ft 113kts
09-Feb-19 14:08 35.234678 -117.899077 38 8957ft 115kts
09-Feb-19 14:09 35.260098 -117.875042 38 8956ft 115kts
09-Feb-19 14:10 35.285487 -117.851029 38 8956ft 115kts
09-Feb-19 14:11 35.312361 -117.841884 307 8951ft 114kts
09-Feb-19 14:12 35.304719 -117.874138 242 9343ft 100kts
09-Feb-19 14:13 35.291764 -117.903597 242 9739ft 97kts
09-Feb-19 14:14 35.278728 -117.933250 242 10003ft 107kts
09-Feb-19 14:15 35.261574 -117.954855 185 9894ft 118kts
09-Feb-19 14:16 35.227501 -117.959434 187 9104ft 125kts
09-Feb-19 14:17 35.194946 -117.949836 200 8345ft 123kts
09-Feb-19 14:18 35.173870 -117.982989 236 7358ft 117kts
09-Feb-19 14:19 35.155458 -118.013915 234 6347ft 109kts
09-Feb-19 14:20 35.137470 -118.043078 233 5346ft 107kts
09-Feb-19 14:21 35.119463 -118.071801 232 4452ft 113kts
09-Feb-19 14:22 35.104160 -118.095483 232 3860ft 68kts
09-Feb-19 14:23 35.089301 -118.118509 231 3492ft 96kts
09-Feb-19 14:24 35.073965 -118.141987 234 3741ft 86kts
09-Feb-19 14:25 35.052737 -118.155614 151 3706ft 113kts
09-Feb-19 14:26 35.037225 -118.132686 75 3508ft 95kts
09-Feb-19 14:27 35.053577 -118.141616 317 2794ft 50kts
09-Feb-19 14:28 35.057572 -118.144532 89 2794ft 4kts
09-Feb-19 14:29 35.056989 -118.148311 133 2794ft 16kts
09-Feb-19 14:30 35.056523 -118.150615 8 2793ft 0kts

Navigation Log

Ident Type
Flight plan parsing failed, navigation log unavailable